createdAt,value
2022-08-27T00:01:41.844Z,14.40
2022-08-27T00:04:09.143Z,15.98
2022-08-27T00:06:36.447Z,17.38
2022-08-27T00:09:03.920Z,16.27
2022-08-27T00:11:32.126Z,16.52
2022-08-27T00:13:59.276Z,16.58
2022-08-27T00:16:26.462Z,16.63
2022-08-27T00:18:56.261Z,16.58
2022-08-27T00:21:23.209Z,16.30
2022-08-27T00:23:50.809Z,17.13
2022-08-27T00:26:17.715Z,16.10
2022-08-27T00:28:47.836Z,15.57
2022-08-27T00:31:14.845Z,16.80
2022-08-27T00:33:42.416Z,15.98
2022-08-27T00:36:11.169Z,16.10
2022-08-27T00:38:40.119Z,16.98
2022-08-27T00:41:08.786Z,16.80
2022-08-27T00:43:46.967Z,16.05
2022-08-27T00:46:20.751Z,15.43
2022-08-27T00:48:49.143Z,14.45
2022-08-27T00:51:15.986Z,14.38
2022-08-27T00:53:43.044Z,14.75
2022-08-27T00:56:15.895Z,14.95
2022-08-27T00:58:47.622Z,12.80
2022-08-27T01:01:17.816Z,14.05
2022-08-27T01:03:47.221Z,13.65
2022-08-27T01:06:16.358Z,13.77
2022-08-27T01:08:47.960Z,13.90
2022-08-27T01:11:14.915Z,14.00
2022-08-27T01:14:00.270Z,13.93
2022-08-27T01:16:34.439Z,15.52
2022-08-27T01:19:03.347Z,14.27
2022-08-27T01:21:36.335Z,13.13
2022-08-27T01:24:10.533Z,14.68
2022-08-27T01:26:39.890Z,15.68
2022-08-27T01:29:06.806Z,14.98
2022-08-27T01:31:34.208Z,15.55
2022-08-27T01:34:05.557Z,16.08
2022-08-27T01:36:34.101Z,15.00
2022-08-27T01:39:00.944Z,15.20
2022-08-27T01:41:28.136Z,16.67
2022-08-27T01:43:57.383Z,15.68
2022-08-27T01:46:26.562Z,15.95
2022-08-27T01:48:54.033Z,14.80
2022-08-27T01:51:21.650Z,15.18
2022-08-27T01:53:48.922Z,15.30
2022-08-27T01:56:16.278Z,17.70
2022-08-27T01:58:43.711Z,18.20
2022-08-27T02:01:14.221Z,16.63
2022-08-27T02:03:41.658Z,15.88
2022-08-27T02:06:11.031Z,15.98
2022-08-27T02:08:38.398Z,15.07
2022-08-27T02:11:06.636Z,14.73
2022-08-27T02:13:33.654Z,15.00
2022-08-27T02:16:00.962Z,17.13
2022-08-27T02:18:29.215Z,15.63
2022-08-27T02:20:56.553Z,15.10
2022-08-27T02:23:23.443Z,14.98
2022-08-27T02:25:51.121Z,15.18
2022-08-27T02:28:18.380Z,14.38
2022-08-27T02:30:45.675Z,14.65
2022-08-27T02:33:13.946Z,15.30
2022-08-27T02:35:44.297Z,13.57
2022-08-27T02:38:12.868Z,13.82
2022-08-27T02:40:40.448Z,14.48
2022-08-27T02:43:08.077Z,15.52
2022-08-27T02:45:36.554Z,13.63
2022-08-27T02:48:04.851Z,14.27
2022-08-27T02:50:31.903Z,13.90
2022-08-27T02:53:00.856Z,14.57
2022-08-27T02:55:28.259Z,14.65
2022-08-27T02:57:55.677Z,14.70
2022-08-27T03:00:23.949Z,13.02
2022-08-27T03:02:52.074Z,13.65
2022-08-27T03:05:19.971Z,12.82
2022-08-27T03:07:47.431Z,13.05
2022-08-27T03:10:18.402Z,12.63
2022-08-27T03:12:45.743Z,14.35
2022-08-27T03:15:15.687Z,13.02
2022-08-27T03:18:01.883Z,13.23
2022-08-27T03:20:29.090Z,13.23
2022-08-27T03:22:56.373Z,12.57
2022-08-27T03:25:25.265Z,12.57
2022-08-27T03:27:52.520Z,13.25
2022-08-27T03:30:22.020Z,13.50
2022-08-27T03:32:49.366Z,12.45
2022-08-27T03:35:16.401Z,12.15
2022-08-27T03:37:44.091Z,12.10
2022-08-27T03:40:12.384Z,12.70
2022-08-27T03:42:42.371Z,13.45
2022-08-27T03:45:10.124Z,12.63
2022-08-27T03:47:37.264Z,11.80
2022-08-27T03:50:06.033Z,12.75
2022-08-27T03:52:34.666Z,12.82
2022-08-27T03:55:01.711Z,12.70
2022-08-27T03:57:29.058Z,11.70
2022-08-27T03:59:57.381Z,11.50
2022-08-27T04:02:24.659Z,11.43
2022-08-27T04:04:51.614Z,11.23
2022-08-27T04:07:19.392Z,10.95
2022-08-27T04:09:46.253Z,10.43
2022-08-27T04:12:13.136Z,10.25
2022-08-27T04:14:40.455Z,9.95
2022-08-27T04:17:08.633Z,9.48
2022-08-27T04:19:36.066Z,8.82
2022-08-27T04:22:04.752Z,9.07
2022-08-27T04:24:33.990Z,8.90
2022-08-27T04:27:23.125Z,8.13
2022-08-27T04:30:16.573Z,7.10
2022-08-27T04:33:20.281Z,7.07
2022-08-27T04:37:02.916Z,7.47
2022-08-27T04:42:41.816Z,6.88
2022-08-27T04:48:55.259Z,6.43
2022-08-27T04:52:53.145Z,6.97
2022-08-27T04:55:17.511Z,6.63
2022-08-27T04:58:11.693Z,6.07
2022-08-27T05:00:48.786Z,6.38
2022-08-27T05:03:40.582Z,5.60
2022-08-27T05:09:44.762Z,6.68
2022-08-27T05:12:21.090Z,6.65
2022-08-27T05:15:14.951Z,6.05
2022-08-27T05:18:50.730Z,6.50
2022-08-27T05:21:12.736Z,7.43
2022-08-27T05:24:12.170Z,7.88
2022-08-27T05:27:13.693Z,6.65
2022-08-27T05:32:42.575Z,6.68
2022-08-27T05:45:28.999Z,7.53
2022-08-27T05:48:21.757Z,7.57
2022-08-27T05:51:08.862Z,6.78
2022-08-27T05:54:08.773Z,7.35
2022-08-27T05:57:21.402Z,7.28
2022-08-27T06:00:46.319Z,7.72
2022-08-27T06:06:47.662Z,7.13
2022-08-27T06:09:46.863Z,8.38
2022-08-27T06:12:28.722Z,7.25
2022-08-27T06:14:56.209Z,7.55
2022-08-27T06:17:23.094Z,7.55
2022-08-27T06:19:50.238Z,7.85
2022-08-27T06:22:17.324Z,8.60
2022-08-27T06:24:44.514Z,7.97
2022-08-27T06:27:14.784Z,8.20
2022-08-27T06:29:44.165Z,8.55
2022-08-27T06:32:12.030Z,8.30
2022-08-27T06:34:39.299Z,8.13
2022-08-27T06:37:07.281Z,8.05
2022-08-27T06:39:36.107Z,8.10
2022-08-27T06:42:05.129Z,8.60
2022-08-27T06:44:32.623Z,9.23
2022-08-27T06:47:01.087Z,8.35
2022-08-27T06:49:27.904Z,8.05
2022-08-27T06:51:55.129Z,8.38
2022-08-27T06:54:22.038Z,8.15
2022-08-27T06:56:50.063Z,8.45
2022-08-27T06:59:18.939Z,8.82
2022-08-27T07:01:49.491Z,8.15
2022-08-27T07:04:21.281Z,8.82
2022-08-27T07:06:49.955Z,9.20
2022-08-27T07:09:17.469Z,8.18
2022-08-27T07:11:44.809Z,8.30
2022-08-27T07:14:11.913Z,7.82
2022-08-27T07:16:41.009Z,8.50
2022-08-27T07:19:08.627Z,9.00
2022-08-27T07:21:40.268Z,10.02
2022-08-27T07:24:09.109Z,8.48
2022-08-27T07:26:38.367Z,8.75
2022-08-27T07:29:07.437Z,8.68
2022-08-27T07:31:38.760Z,8.52
2022-08-27T07:34:07.402Z,8.25
2022-08-27T07:36:36.018Z,8.35
2022-08-27T07:39:05.060Z,8.73
2022-08-27T07:41:32.869Z,8.20
2022-08-27T07:44:18.879Z,9.65
2022-08-27T07:46:48.779Z,10.18
2022-08-27T07:49:16.450Z,10.25
2022-08-27T07:51:43.358Z,9.77
2022-08-27T07:54:11.875Z,9.43
2022-08-27T07:56:38.852Z,9.55
2022-08-27T07:59:06.148Z,8.68
2022-08-27T08:01:33.126Z,10.57
2022-08-27T08:04:00.542Z,8.20
2022-08-27T08:06:27.630Z,9.10
2022-08-27T08:08:54.737Z,8.73
2022-08-27T08:11:23.091Z,8.80
2022-08-27T08:13:50.000Z,8.00
2022-08-27T08:16:16.917Z,8.40
2022-08-27T08:18:43.825Z,8.80
2022-08-27T08:21:13.023Z,8.02
2022-08-27T08:23:41.412Z,8.43
2022-08-27T08:26:09.736Z,8.13
2022-08-27T08:28:39.249Z,8.20
2022-08-27T08:31:07.818Z,8.98
2022-08-27T08:33:35.898Z,7.93
2022-08-27T08:36:05.515Z,8.90
2022-08-27T08:38:32.469Z,8.07
2022-08-27T08:40:59.426Z,7.85
2022-08-27T08:43:33.889Z,7.30
2022-08-27T08:46:09.833Z,7.82
2022-08-27T08:48:41.293Z,7.80
2022-08-27T08:51:19.449Z,7.00
2022-08-27T08:53:50.895Z,7.60
2022-08-27T08:56:22.791Z,7.75
2022-08-27T08:58:52.763Z,7.10
2022-08-27T09:01:21.985Z,7.47
2022-08-27T09:03:53.723Z,7.85
2022-08-27T09:06:26.902Z,8.20
2022-08-27T09:08:54.695Z,7.28
2022-08-27T09:11:30.025Z,7.97
2022-08-27T09:14:01.611Z,7.00
2022-08-27T09:16:30.256Z,7.00
2022-08-27T09:18:57.207Z,7.13
2022-08-27T09:21:35.006Z,6.68
2022-08-27T09:24:07.200Z,6.72
2022-08-27T09:26:37.698Z,6.30
2022-08-27T09:29:21.387Z,7.22
2022-08-27T09:31:56.987Z,6.82
2022-08-27T09:34:25.599Z,6.43
2022-08-27T09:36:58.045Z,6.55
2022-08-27T09:39:33.921Z,7.35
2022-08-27T09:42:04.045Z,7.70
2022-08-27T09:44:32.777Z,7.35
2022-08-27T09:47:03.811Z,6.63
2022-08-27T09:49:31.350Z,6.70
2022-08-27T09:51:59.324Z,7.28
2022-08-27T09:54:42.098Z,6.85
2022-08-27T09:58:22.349Z,6.78
2022-08-27T10:02:45.457Z,6.90
2022-08-27T10:04:51.264Z,6.55
2022-08-27T10:07:33.684Z,6.30
2022-08-27T10:10:10.758Z,6.90
2022-08-27T10:12:59.345Z,6.85
2022-08-27T10:15:43.199Z,6.78
2022-08-27T10:18:22.466Z,7.00
2022-08-27T10:21:05.736Z,6.70
2022-08-27T10:23:38.919Z,6.47
2022-08-27T10:26:13.381Z,6.50
2022-08-27T10:28:56.250Z,6.18
2022-08-27T10:31:31.337Z,6.50
2022-08-27T10:34:16.712Z,6.72
2022-08-27T10:36:59.525Z,6.20
2022-08-27T10:39:44.414Z,7.25
2022-08-27T10:42:26.960Z,6.43
2022-08-27T10:45:08.641Z,7.38
2022-08-27T10:47:55.209Z,6.88
2022-08-27T10:50:28.801Z,7.00
2022-08-27T10:53:00.465Z,6.78
2022-08-27T10:55:31.998Z,6.85
2022-08-27T10:58:22.625Z,6.57
2022-08-27T11:00:58.301Z,6.68
2022-08-27T11:03:32.168Z,6.43
2022-08-27T11:06:04.395Z,6.32
2022-08-27T11:08:40.780Z,6.20
2022-08-27T11:11:57.044Z,5.90
2022-08-27T11:14:01.424Z,6.50
2022-08-27T11:16:35.560Z,5.75
2022-08-27T11:19:11.145Z,5.55
2022-08-27T11:21:43.775Z,7.25
2022-08-27T11:24:22.006Z,6.68
2022-08-27T11:26:52.224Z,6.95
2022-08-27T11:29:26.396Z,7.07
2022-08-27T11:31:58.089Z,7.00
2022-08-27T11:34:33.696Z,6.95
2022-08-27T11:37:21.705Z,6.80
2022-08-27T11:40:02.326Z,7.05
2022-08-27T11:42:37.810Z,6.97
2022-08-27T11:45:07.771Z,6.43
2022-08-27T11:47:35.574Z,6.85
2022-08-27T11:50:16.288Z,6.93
2022-08-27T11:52:55.348Z,6.30
2022-08-27T11:55:30.422Z,7.47
2022-08-27T11:58:08.111Z,6.72
2022-08-27T12:00:37.042Z,6.40
2022-08-27T12:03:08.991Z,6.65
2022-08-27T12:05:43.343Z,5.97
2022-08-27T12:08:29.328Z,6.30
2022-08-27T12:11:13.678Z,7.00
2022-08-27T12:13:49.028Z,6.93
2022-08-27T12:16:26.209Z,6.45
2022-08-27T12:19:09.349Z,6.63
2022-08-27T12:21:48.830Z,6.30
2022-08-27T12:24:42.585Z,6.20
2022-08-27T12:27:28.699Z,5.95
2022-08-27T12:29:57.549Z,5.80
2022-08-27T12:32:30.022Z,6.05
2022-08-27T12:35:09.463Z,6.20
2022-08-27T12:37:40.313Z,5.30
2022-08-27T12:40:20.615Z,6.03
2022-08-27T12:42:52.227Z,7.03
2022-08-27T12:45:24.278Z,5.82
2022-08-27T12:47:53.318Z,6.28
2022-08-27T12:50:24.024Z,6.22
2022-08-27T12:53:13.008Z,6.05
2022-08-27T12:55:50.957Z,6.30
2022-08-27T12:58:27.067Z,5.60
2022-08-27T13:01:09.105Z,6.30
2022-08-27T13:03:39.299Z,5.90
2022-08-27T13:06:17.128Z,5.50
2022-08-27T13:08:44.053Z,5.93
2022-08-27T13:11:18.318Z,6.05
2022-08-27T13:13:47.019Z,6.35
2022-08-27T13:16:16.932Z,5.90
2022-08-27T13:18:48.147Z,5.43
2022-08-27T13:21:21.213Z,5.82
2022-08-27T13:23:54.666Z,5.75
2022-08-27T13:26:24.278Z,5.47
2022-08-27T13:28:53.468Z,5.25
2022-08-27T13:31:22.538Z,5.35
2022-08-27T13:33:50.675Z,5.45
2022-08-27T13:36:27.690Z,5.38
2022-08-27T13:39:00.756Z,5.55
2022-08-27T13:41:31.053Z,5.78
2022-08-27T13:44:07.561Z,5.47
2022-08-27T13:46:42.315Z,5.55
2022-08-27T13:49:16.022Z,5.00
2022-08-27T13:51:45.391Z,5.13
2022-08-27T13:54:13.214Z,5.85
2022-08-27T13:56:55.150Z,4.95
2022-08-27T13:59:27.338Z,4.70
2022-08-27T14:01:58.339Z,5.07
2022-08-27T14:04:27.705Z,4.65
2022-08-27T14:06:54.895Z,4.45
2022-08-27T14:09:25.670Z,4.35
2022-08-27T14:11:59.909Z,4.40
2022-08-27T14:14:30.849Z,4.45
2022-08-27T14:16:59.720Z,4.57
2022-08-27T14:19:29.106Z,4.22
2022-08-27T14:22:02.990Z,4.78
2022-08-27T14:24:30.391Z,4.60
2022-08-27T14:27:05.523Z,4.93
2022-08-27T14:29:34.136Z,4.60
2022-08-27T14:32:00.953Z,4.82
2022-08-27T14:34:29.181Z,3.90
2022-08-27T14:36:57.949Z,4.22
2022-08-27T14:39:26.628Z,4.10
2022-08-27T14:41:54.505Z,4.40
2022-08-27T14:44:21.774Z,4.65
2022-08-27T14:46:50.240Z,3.90
2022-08-27T14:49:25.699Z,4.68
2022-08-27T14:51:52.674Z,4.53
2022-08-27T14:54:19.644Z,3.88
2022-08-27T14:56:48.173Z,3.95
2022-08-27T14:59:15.256Z,4.78
2022-08-27T15:01:42.614Z,3.97
2022-08-27T15:04:11.248Z,4.70
2022-08-27T15:06:38.256Z,3.63
2022-08-27T15:09:05.857Z,3.95
2022-08-27T15:11:35.737Z,4.10
2022-08-27T15:14:05.082Z,3.55
2022-08-27T15:16:34.008Z,3.65
2022-08-27T15:19:02.134Z,3.78
2022-08-27T15:21:31.083Z,3.60
2022-08-27T15:24:01.009Z,3.55
2022-08-27T15:26:28.962Z,3.80
2022-08-27T15:28:56.476Z,4.03
2022-08-27T15:31:23.757Z,4.28
2022-08-27T15:33:51.087Z,3.60
2022-08-27T15:36:18.125Z,3.95
2022-08-27T15:38:46.634Z,3.75
2022-08-27T15:41:13.566Z,3.55
2022-08-27T15:43:40.550Z,3.50
2022-08-27T15:46:07.495Z,3.72
2022-08-27T15:48:34.813Z,3.88
2022-08-27T15:51:06.324Z,3.38
2022-08-27T15:53:34.924Z,3.45
2022-08-27T15:56:03.993Z,3.03
2022-08-27T15:58:31.416Z,3.70
2022-08-27T16:01:04.280Z,3.30
2022-08-27T16:03:35.425Z,3.00
2022-08-27T16:06:05.243Z,3.72
2022-08-27T16:08:33.854Z,3.10
2022-08-27T16:11:10.467Z,3.22
2022-08-27T16:13:38.254Z,3.72
2022-08-27T16:16:07.476Z,3.28
2022-08-27T16:18:35.481Z,3.25
2022-08-27T16:21:04.403Z,3.08
2022-08-27T16:23:32.473Z,3.05
2022-08-27T16:26:21.929Z,3.85
2022-08-27T16:28:50.125Z,2.97
2022-08-27T16:31:17.063Z,3.03
2022-08-27T16:33:44.209Z,3.40
2022-08-27T16:36:11.219Z,3.10
2022-08-27T16:38:38.444Z,3.25
2022-08-27T16:41:06.419Z,3.10
2022-08-27T16:43:34.490Z,2.38
2022-08-27T16:46:03.348Z,2.72
2022-08-27T16:49:00.893Z,3.05
2022-08-27T16:51:32.581Z,2.70
2022-08-27T16:54:01.867Z,2.95
2022-08-27T16:56:28.788Z,3.08
2022-08-27T16:58:56.147Z,2.80
2022-08-27T17:01:25.177Z,2.50
2022-08-27T17:04:17.291Z,2.63
2022-08-27T17:06:42.368Z,2.63
2022-08-27T17:09:10.623Z,3.22
2022-08-27T17:11:41.965Z,3.10
2022-08-27T17:14:10.750Z,2.92
2022-08-27T17:16:41.617Z,2.20
2022-08-27T17:19:09.740Z,3.10
2022-08-27T17:21:37.331Z,2.53
2022-08-27T17:24:05.371Z,2.70
2022-08-27T17:26:39.603Z,4.05
2022-08-27T17:29:06.762Z,3.33
2022-08-27T17:31:41.403Z,3.20
2022-08-27T17:34:15.104Z,2.70
2022-08-27T17:36:44.432Z,3.00
2022-08-27T17:39:11.865Z,2.72
2022-08-27T17:41:41.575Z,2.75
2022-08-27T17:44:16.765Z,2.72
2022-08-27T17:46:45.105Z,2.92
2022-08-27T17:49:12.052Z,2.53
2022-08-27T17:51:38.966Z,2.90
2022-08-27T17:54:06.808Z,2.90
2022-08-27T17:56:34.393Z,2.45
2022-08-27T17:59:01.565Z,2.90
2022-08-27T18:01:31.053Z,3.10
2022-08-27T18:04:00.092Z,3.40
2022-08-27T18:06:28.173Z,2.85
2022-08-27T18:08:55.272Z,3.47
2022-08-27T18:11:22.399Z,3.45
2022-08-27T18:13:55.044Z,2.60
2022-08-27T18:16:22.381Z,3.25
2022-08-27T18:18:49.866Z,4.03
2022-08-27T18:21:25.467Z,3.50
2022-08-27T18:23:54.097Z,4.22
2022-08-27T18:26:23.279Z,3.42
2022-08-27T18:28:50.784Z,3.22
2022-08-27T18:31:19.693Z,3.40
2022-08-27T18:33:46.974Z,2.72
2022-08-27T18:36:15.271Z,3.20
2022-08-27T18:38:46.562Z,3.25
2022-08-27T18:41:13.796Z,3.00
2022-08-27T18:43:42.413Z,3.22
2022-08-27T18:46:09.469Z,3.35
2022-08-27T18:48:37.250Z,2.95
2022-08-27T18:51:07.616Z,3.15
2022-08-27T18:53:39.714Z,3.28
2022-08-27T18:56:09.768Z,5.05
2022-08-27T18:58:38.661Z,3.47
2022-08-27T19:01:08.427Z,3.25
2022-08-27T19:03:38.843Z,3.50
2022-08-27T19:06:08.879Z,3.05
2022-08-27T19:08:38.348Z,3.20
2022-08-27T19:11:05.815Z,3.08
2022-08-27T19:13:34.148Z,3.55
2022-08-27T19:16:03.119Z,3.05
2022-08-27T19:18:32.998Z,3.15
2022-08-27T19:21:00.091Z,3.22
2022-08-27T19:23:27.655Z,3.00
2022-08-27T19:25:54.612Z,3.10
2022-08-27T19:28:26.667Z,2.80
2022-08-27T19:30:55.071Z,2.95
2022-08-27T19:33:22.972Z,3.15
2022-08-27T19:35:51.026Z,2.95
2022-08-27T19:38:18.119Z,2.90
2022-08-27T19:40:45.026Z,2.92
2022-08-27T19:43:11.936Z,2.78
2022-08-27T19:45:39.828Z,2.55
2022-08-27T19:48:09.032Z,2.80
2022-08-27T19:50:35.950Z,2.63
2022-08-27T19:53:03.231Z,2.70
2022-08-27T19:55:30.257Z,2.55
2022-08-27T19:57:57.442Z,2.85
2022-08-27T20:00:27.512Z,2.20
2022-08-27T20:02:55.168Z,4.22
2022-08-27T20:05:23.430Z,2.92
2022-08-27T20:07:53.003Z,2.70
2022-08-27T20:10:22.206Z,2.30
2022-08-27T20:12:49.711Z,2.08
2022-08-27T20:15:17.102Z,2.58
2022-08-27T20:17:45.448Z,2.58
2022-08-27T20:20:12.740Z,2.42
2022-08-27T20:22:41.504Z,2.38
2022-08-27T20:25:09.366Z,2.83
2022-08-27T20:27:36.345Z,2.35
2022-08-27T20:30:04.854Z,2.22
2022-08-27T20:32:31.737Z,2.22
2022-08-27T20:34:58.919Z,2.40
2022-08-27T20:37:25.858Z,2.28
2022-08-27T20:39:54.432Z,2.67
2022-08-27T20:42:21.402Z,2.50
2022-08-27T20:44:48.955Z,2.17
2022-08-27T20:47:16.954Z,2.38
2022-08-27T20:49:44.855Z,2.38
2022-08-27T20:52:12.826Z,2.45
2022-08-27T20:54:40.691Z,2.08
2022-08-27T20:57:09.433Z,1.92
2022-08-27T20:59:56.371Z,2.15
2022-08-27T21:02:28.533Z,2.30
2022-08-27T21:04:58.005Z,2.42
2022-08-27T21:07:26.002Z,2.35
2022-08-27T21:09:56.213Z,2.70
2022-08-27T21:12:25.652Z,3.05
2022-08-27T21:14:54.732Z,2.20
2022-08-27T21:17:24.238Z,2.50
2022-08-27T21:19:51.210Z,2.70
2022-08-27T21:22:18.207Z,2.45
2022-08-27T21:24:47.155Z,2.05
2022-08-27T21:27:14.642Z,2.83
2022-08-27T21:29:45.071Z,2.95
2022-08-27T21:32:12.045Z,2.40
2022-08-27T21:34:38.965Z,2.75
2022-08-27T21:37:06.174Z,2.88
2022-08-27T21:39:34.184Z,2.97
2022-08-27T21:42:01.558Z,3.33
2022-08-27T21:44:29.094Z,3.00
2022-08-27T21:46:58.098Z,2.83
2022-08-27T21:49:25.070Z,2.85
2022-08-27T21:51:51.981Z,2.92
2022-08-27T21:54:19.463Z,2.95
2022-08-27T21:56:46.461Z,2.50
2022-08-27T21:59:13.725Z,3.35
2022-08-27T22:01:40.861Z,3.50
2022-08-27T22:04:09.068Z,3.78
2022-08-27T22:06:35.877Z,3.10
2022-08-27T22:09:02.725Z,3.45
2022-08-27T22:11:30.546Z,6.38
2022-08-27T22:13:58.221Z,3.83
2022-08-27T22:16:26.265Z,3.25
2022-08-27T22:18:54.882Z,4.72
2022-08-27T22:21:23.626Z,4.15
2022-08-27T22:23:51.804Z,3.60
2022-08-27T22:26:19.572Z,3.42
2022-08-27T22:28:46.676Z,3.40
2022-08-27T22:31:13.750Z,3.55
2022-08-27T22:33:41.126Z,3.20
2022-08-27T22:36:10.605Z,3.63
2022-08-27T22:38:38.826Z,3.42
2022-08-27T22:41:07.135Z,3.50
2022-08-27T22:43:35.315Z,3.40
2022-08-27T22:46:02.151Z,3.35
2022-08-27T22:48:29.408Z,3.40
2022-08-27T22:50:56.282Z,4.15
2022-08-27T22:53:23.536Z,3.40
2022-08-27T22:55:51.697Z,3.22
2022-08-27T22:58:19.381Z,3.60
2022-08-27T23:00:52.528Z,3.75
2022-08-27T23:03:20.614Z,3.80
2022-08-27T23:05:47.786Z,3.60
2022-08-27T23:08:15.638Z,4.13
2022-08-27T23:10:43.530Z,3.40
2022-08-27T23:13:13.023Z,4.13
2022-08-27T23:15:40.991Z,3.80
2022-08-27T23:18:08.804Z,4.05
2022-08-27T23:20:36.276Z,3.90
2022-08-27T23:23:03.203Z,3.30
2022-08-27T23:25:48.792Z,3.63
2022-08-27T23:28:17.732Z,4.05
2022-08-27T23:30:45.095Z,3.97
2022-08-27T23:33:13.281Z,4.63
2022-08-27T23:35:44.243Z,4.25
2022-08-27T23:38:11.885Z,3.80
2022-08-27T23:40:38.936Z,4.33
2022-08-27T23:43:06.159Z,3.92
2022-08-27T23:45:39.700Z,4.03
2022-08-27T23:48:07.840Z,3.93
2022-08-27T23:50:35.306Z,4.13
2022-08-27T23:53:03.034Z,4.03
2022-08-27T23:55:30.413Z,4.23
2022-08-27T23:58:01.217Z,3.93
